createdAt,value
2022-10-08T00:01:59.460Z,20.70
2022-10-08T00:04:29.895Z,21.77
2022-10-08T00:07:02.554Z,21.63
2022-10-08T00:09:32.517Z,20.23
2022-10-08T00:12:02.496Z,19.77
2022-10-08T00:14:32.522Z,22.20
2022-10-08T00:17:03.021Z,21.53
2022-10-08T00:19:33.235Z,21.33
2022-10-08T00:22:05.919Z,21.70
2022-10-08T00:24:36.436Z,22.33
2022-10-08T00:27:06.674Z,20.93
2022-10-08T00:29:36.769Z,22.17
2022-10-08T00:32:07.146Z,20.67
2022-10-08T00:34:37.142Z,21.27
2022-10-08T00:37:09.866Z,20.87
2022-10-08T00:39:40.454Z,20.13
2022-10-08T00:42:12.909Z,19.63
2022-10-08T00:44:57.911Z,21.97
2022-10-08T00:47:41.783Z,23.80
2022-10-08T00:50:21.448Z,23.83
2022-10-08T00:52:59.478Z,23.10
2022-10-08T00:55:31.267Z,21.80
2022-10-08T00:58:09.761Z,21.33
2022-10-08T01:00:39.784Z,22.13
2022-10-08T01:03:10.345Z,24.10
2022-10-08T01:05:55.178Z,22.67
2022-10-08T01:08:38.921Z,22.87
2022-10-08T01:11:27.393Z,23.97
2022-10-08T01:14:11.138Z,23.50
2022-10-08T01:16:54.262Z,22.07
2022-10-08T01:19:59.273Z,20.97
2022-10-08T01:22:53.738Z,21.73
2022-10-08T01:25:39.795Z,21.70
2022-10-08T01:28:22.588Z,22.90
2022-10-08T01:31:00.988Z,21.57
2022-10-08T01:33:40.961Z,20.97
2022-10-08T01:36:13.920Z,20.70
2022-10-08T01:38:50.013Z,21.40
2022-10-08T01:41:22.993Z,22.63
2022-10-08T01:44:05.206Z,23.07
2022-10-08T01:46:41.118Z,24.00
2022-10-08T01:49:17.502Z,25.97
2022-10-08T01:51:56.492Z,26.60
2022-10-08T01:54:31.937Z,24.67
2022-10-08T01:57:05.814Z,25.20
2022-10-08T01:59:44.929Z,23.13
2022-10-08T02:02:23.251Z,21.37
2022-10-08T02:04:58.422Z,23.10
2022-10-08T02:07:32.632Z,20.67
2022-10-08T02:10:11.560Z,22.93
2022-10-08T02:12:44.225Z,28.70
2022-10-08T02:15:23.403Z,25.00
2022-10-08T02:18:07.061Z,25.67
2022-10-08T02:20:42.545Z,23.87
2022-10-08T02:23:24.207Z,22.80
2022-10-08T02:26:00.978Z,25.50
2022-10-08T02:28:46.081Z,24.87
2022-10-08T02:31:28.673Z,25.40
2022-10-08T02:34:09.639Z,23.20
2022-10-08T02:36:44.705Z,24.33
2022-10-08T02:39:18.920Z,25.07
2022-10-08T02:41:58.504Z,23.67
2022-10-08T02:44:36.958Z,25.17
2022-10-08T02:47:15.757Z,24.20
2022-10-08T02:49:54.283Z,22.87
2022-10-08T02:52:27.243Z,21.60
2022-10-08T02:55:00.432Z,22.30
2022-10-08T02:57:40.657Z,23.03
2022-10-08T03:00:13.831Z,22.73
2022-10-08T03:02:53.784Z,24.63
2022-10-08T03:05:24.718Z,23.17
2022-10-08T03:07:57.555Z,22.60
2022-10-08T03:10:30.965Z,24.87
2022-10-08T03:13:04.339Z,24.30
2022-10-08T03:15:37.318Z,25.90
2022-10-08T03:18:14.579Z,21.27
2022-10-08T03:20:50.793Z,22.60
2022-10-08T03:23:22.138Z,22.80
2022-10-08T03:25:52.238Z,25.07
2022-10-08T03:28:22.301Z,24.60
2022-10-08T03:30:52.461Z,24.03
2022-10-08T03:33:25.355Z,20.90
2022-10-08T03:35:55.410Z,20.73
2022-10-08T03:38:25.387Z,21.60
2022-10-08T03:40:59.399Z,22.43
2022-10-08T03:43:35.847Z,19.00
2022-10-08T03:46:06.849Z,23.17
2022-10-08T03:48:39.944Z,20.77
2022-10-08T03:51:14.355Z,23.57
2022-10-08T03:53:46.907Z,23.57
2022-10-08T03:56:20.398Z,23.20
2022-10-08T03:58:56.343Z,24.37
2022-10-08T04:01:27.073Z,23.70
2022-10-08T04:03:59.677Z,23.73
2022-10-08T04:06:29.969Z,23.83
2022-10-08T04:09:01.176Z,25.67
2022-10-08T04:11:32.520Z,26.47
2022-10-08T04:14:03.754Z,26.30
2022-10-08T04:16:33.792Z,23.17
2022-10-08T04:19:06.436Z,24.70
2022-10-08T04:21:36.484Z,24.97
2022-10-08T04:24:07.058Z,23.87
2022-10-08T04:26:37.026Z,23.70
2022-10-08T04:29:08.267Z,25.73
2022-10-08T04:31:38.269Z,23.27
2022-10-08T04:34:12.469Z,25.33
2022-10-08T04:36:42.530Z,21.40
2022-10-08T04:39:12.632Z,25.17
2022-10-08T04:41:42.629Z,27.13
2022-10-08T04:44:12.573Z,25.87
2022-10-08T04:46:42.644Z,25.00
2022-10-08T04:49:15.554Z,24.33
2022-10-08T04:51:45.577Z,23.73
2022-10-08T04:54:15.602Z,24.80
2022-10-08T04:56:45.613Z,23.63
2022-10-08T04:59:15.779Z,25.87
2022-10-08T05:01:46.348Z,25.37
2022-10-08T05:04:18.922Z,24.20
2022-10-08T05:06:48.877Z,23.03
2022-10-08T05:09:19.150Z,24.40
2022-10-08T05:11:49.139Z,23.50
2022-10-08T05:14:19.131Z,23.90
2022-10-08T05:16:49.122Z,21.07
2022-10-08T05:19:21.679Z,20.00
2022-10-08T05:21:51.635Z,20.90
2022-10-08T05:24:21.730Z,19.80
2022-10-08T05:26:59.623Z,19.50
2022-10-08T05:29:30.726Z,21.00
2022-10-08T05:32:00.826Z,20.23
2022-10-08T05:34:33.678Z,20.70
2022-10-08T05:37:03.634Z,20.20
2022-10-08T05:39:33.594Z,20.60
2022-10-08T05:42:03.576Z,20.67
2022-10-08T05:44:37.375Z,20.50
2022-10-08T05:47:08.124Z,22.20
2022-10-08T05:49:40.724Z,19.87
2022-10-08T05:52:10.694Z,20.83
2022-10-08T05:54:40.725Z,20.20
2022-10-08T05:57:10.854Z,19.77
2022-10-08T05:59:40.853Z,21.77
2022-10-08T06:02:13.286Z,21.00
2022-10-08T06:04:46.192Z,21.30
2022-10-08T06:07:16.146Z,21.60
2022-10-08T06:09:46.486Z,21.60
2022-10-08T06:12:16.566Z,20.97
2022-10-08T06:14:46.639Z,22.70
2022-10-08T06:17:16.601Z,19.43
2022-10-08T06:19:49.170Z,20.90
2022-10-08T06:22:19.190Z,19.80
2022-10-08T06:24:49.211Z,21.73
2022-10-08T06:27:19.145Z,20.87
2022-10-08T06:29:49.137Z,21.30
2022-10-08T06:32:19.110Z,22.03
2022-10-08T06:34:52.466Z,18.33
2022-10-08T06:37:22.405Z,21.27
2022-10-08T06:39:52.386Z,20.87
2022-10-08T06:42:22.357Z,18.90
2022-10-08T06:44:52.455Z,22.30
2022-10-08T06:47:22.593Z,18.93
2022-10-08T06:49:55.162Z,20.73
2022-10-08T06:52:25.148Z,16.70
2022-10-08T06:54:55.200Z,20.17
2022-10-08T06:57:25.337Z,18.90
2022-10-08T06:59:57.938Z,18.57
2022-10-08T07:02:28.266Z,15.00
2022-10-08T07:05:00.912Z,16.43
2022-10-08T07:07:31.024Z,15.00
2022-10-08T07:10:01.085Z,17.27
2022-10-08T07:12:31.525Z,15.17
2022-10-08T07:15:01.753Z,15.13
2022-10-08T07:17:32.255Z,14.10
2022-10-08T07:20:04.850Z,15.07
2022-10-08T07:22:34.827Z,15.40
2022-10-08T07:25:04.765Z,12.43
2022-10-08T07:27:34.782Z,12.20
2022-10-08T07:30:04.910Z,12.13
2022-10-08T07:32:34.984Z,12.77
2022-10-08T07:35:09.092Z,13.93
2022-10-08T07:37:39.151Z,13.40
2022-10-08T07:40:10.890Z,11.70
2022-10-08T07:42:40.937Z,10.43
2022-10-08T07:45:12.626Z,11.00
2022-10-08T07:47:42.598Z,11.43
2022-10-08T07:50:15.331Z,11.70
2022-10-08T07:52:45.672Z,11.53
2022-10-08T07:55:15.785Z,9.40
2022-10-08T07:57:46.380Z,8.60
2022-10-08T08:00:16.825Z,8.53
2022-10-08T08:02:47.348Z,8.80
2022-10-08T08:05:20.123Z,8.63
2022-10-08T08:07:53.223Z,9.73
2022-10-08T08:10:23.565Z,8.73
2022-10-08T08:12:53.674Z,7.53
2022-10-08T08:15:23.823Z,7.30
2022-10-08T08:17:53.788Z,7.87
2022-10-08T08:20:26.385Z,7.03
2022-10-08T08:22:56.403Z,6.43
2022-10-08T08:25:27.668Z,5.00
2022-10-08T08:27:57.672Z,4.70
2022-10-08T08:30:27.676Z,6.10
2022-10-08T08:32:57.662Z,6.10
2022-10-08T08:35:30.193Z,5.40
2022-10-08T08:38:00.277Z,6.30
2022-10-08T08:40:31.071Z,6.00
2022-10-08T08:43:01.310Z,5.73
2022-10-08T08:45:46.334Z,5.67
2022-10-08T08:48:24.026Z,5.20
2022-10-08T08:51:00.187Z,4.50
2022-10-08T08:53:31.278Z,5.70
2022-10-08T08:56:08.179Z,4.53
2022-10-08T08:58:48.123Z,4.90
2022-10-08T09:01:28.225Z,5.73
2022-10-08T09:04:06.989Z,4.23
2022-10-08T09:06:42.338Z,4.20
2022-10-08T09:09:27.198Z,4.80
2022-10-08T09:11:58.281Z,7.63
2022-10-08T09:14:40.087Z,5.20
2022-10-08T09:17:19.646Z,3.93
2022-10-08T09:19:51.944Z,4.77
2022-10-08T09:22:28.165Z,4.10
2022-10-08T09:25:03.896Z,5.03
2022-10-08T09:27:49.682Z,5.50
2022-10-08T09:30:37.821Z,4.10
2022-10-08T09:33:22.803Z,4.67
2022-10-08T09:35:55.236Z,3.90
2022-10-08T09:38:31.915Z,4.60
2022-10-08T09:41:05.999Z,3.90
2022-10-08T09:43:38.033Z,4.20
2022-10-08T09:46:13.839Z,4.40
2022-10-08T09:48:45.907Z,4.13
2022-10-08T09:51:20.289Z,3.60
2022-10-08T09:53:57.614Z,4.53
2022-10-08T09:56:32.489Z,3.57
2022-10-08T09:59:07.076Z,4.27
2022-10-08T10:01:37.165Z,5.13
2022-10-08T10:04:07.717Z,5.10
2022-10-08T10:06:42.399Z,4.23
2022-10-08T10:09:33.369Z,4.63
2022-10-08T10:12:14.490Z,3.77
2022-10-08T10:14:49.065Z,3.30
2022-10-08T10:17:34.073Z,3.90
2022-10-08T10:20:08.903Z,4.40
2022-10-08T10:22:50.973Z,3.43
2022-10-08T10:25:40.023Z,3.83
2022-10-08T10:28:18.758Z,4.73
2022-10-08T10:30:59.945Z,2.80
2022-10-08T10:33:37.589Z,3.00
2022-10-08T10:36:16.578Z,6.97
2022-10-08T10:38:58.842Z,4.27
2022-10-08T10:41:43.383Z,3.20
2022-10-08T10:44:16.838Z,3.53
2022-10-08T10:46:52.434Z,3.10
2022-10-08T10:49:28.619Z,3.20
2022-10-08T10:52:22.575Z,3.60
2022-10-08T10:55:20.785Z,3.60
2022-10-08T10:58:33.687Z,3.17
2022-10-08T11:01:17.386Z,3.50
2022-10-08T11:04:00.674Z,3.67
2022-10-08T11:07:02.143Z,3.60
2022-10-08T11:09:48.259Z,4.23
2022-10-08T11:12:35.292Z,4.00
2022-10-08T11:15:25.425Z,3.47
2022-10-08T11:18:21.166Z,3.80
2022-10-08T11:21:17.165Z,3.83
2022-10-08T11:24:16.558Z,3.43
2022-10-08T11:26:58.176Z,3.73
2022-10-08T11:29:41.553Z,3.87
2022-10-08T11:32:19.227Z,2.93
2022-10-08T11:34:57.325Z,3.20
2022-10-08T11:37:39.047Z,3.13
2022-10-08T11:40:22.643Z,3.80
2022-10-08T11:43:04.715Z,5.33
2022-10-08T11:45:40.003Z,3.33
2022-10-08T11:48:38.467Z,2.70
2022-10-08T11:51:41.201Z,3.90
2022-10-08T11:54:20.049Z,3.73
2022-10-08T11:56:53.894Z,3.33
2022-10-08T11:59:43.124Z,3.43
2022-10-08T12:02:28.765Z,3.40
2022-10-08T12:05:19.245Z,3.20
2022-10-08T12:07:54.839Z,2.67
2022-10-08T12:10:34.468Z,2.80
2022-10-08T12:13:31.237Z,3.20
2022-10-08T12:16:07.846Z,2.60
2022-10-08T12:18:56.142Z,3.10
2022-10-08T12:21:53.717Z,3.03
2022-10-08T12:24:58.505Z,3.53
2022-10-08T12:27:41.244Z,3.40
2022-10-08T12:30:16.739Z,3.33
2022-10-08T12:32:59.825Z,2.97
2022-10-08T12:35:34.442Z,3.17
2022-10-08T12:38:37.502Z,3.13
2022-10-08T12:41:25.194Z,3.33
2022-10-08T12:44:06.466Z,3.60
2022-10-08T12:46:50.031Z,2.50
2022-10-08T12:49:32.502Z,2.93
2022-10-08T12:52:10.378Z,3.27
2022-10-08T12:54:50.741Z,3.07
2022-10-08T12:57:30.151Z,2.53
2022-10-08T13:00:02.543Z,3.20
2022-10-08T13:02:42.342Z,2.33
2022-10-08T13:05:29.131Z,2.73
2022-10-08T13:07:59.558Z,3.33
2022-10-08T13:10:33.021Z,2.10
2022-10-08T13:13:05.235Z,2.90
2022-10-08T13:15:37.699Z,2.90
2022-10-08T13:18:17.341Z,2.60
2022-10-08T13:21:00.275Z,2.30
2022-10-08T13:23:38.388Z,2.33
2022-10-08T13:26:45.881Z,3.30
2022-10-08T13:29:34.747Z,2.73
2022-10-08T13:32:21.463Z,2.00
2022-10-08T13:34:54.842Z,2.87
2022-10-08T13:37:36.135Z,2.63
2022-10-08T13:40:20.069Z,2.57
2022-10-08T13:42:55.777Z,2.13
2022-10-08T13:45:29.281Z,3.27
2022-10-08T13:48:00.279Z,2.30
2022-10-08T13:50:30.429Z,2.17
2022-10-08T13:53:04.178Z,3.20
2022-10-08T13:55:38.200Z,2.67
2022-10-08T13:58:13.695Z,2.07
2022-10-08T14:00:46.741Z,1.83
2022-10-08T14:03:17.690Z,2.50
2022-10-08T14:05:50.803Z,1.87
2022-10-08T14:08:26.739Z,2.90
2022-10-08T14:10:59.080Z,2.00
2022-10-08T14:13:32.032Z,1.90
2022-10-08T14:16:02.052Z,2.87
2022-10-08T14:18:32.070Z,2.10
2022-10-08T14:21:02.111Z,2.20
2022-10-08T14:23:32.110Z,1.97
2022-10-08T14:26:02.137Z,3.20
2022-10-08T14:28:34.966Z,3.63
2022-10-08T14:31:05.021Z,3.00
2022-10-08T14:33:35.347Z,3.10
2022-10-08T14:36:06.795Z,2.27
2022-10-08T14:38:36.889Z,2.03
2022-10-08T14:41:06.965Z,2.03
2022-10-08T14:43:39.827Z,2.13
2022-10-08T14:46:10.204Z,2.40
2022-10-08T14:48:40.208Z,2.57
2022-10-08T14:51:10.363Z,2.57
2022-10-08T14:53:40.393Z,2.67
2022-10-08T14:56:12.946Z,2.63
2022-10-08T14:58:45.832Z,2.80
2022-10-08T15:01:15.786Z,2.00
2022-10-08T15:03:45.972Z,1.60
2022-10-08T15:06:16.386Z,2.00
2022-10-08T15:08:49.362Z,1.90
2022-10-08T15:11:19.453Z,2.07
2022-10-08T15:13:52.052Z,2.67
2022-10-08T15:16:22.212Z,1.90
2022-10-08T15:18:52.328Z,2.27
2022-10-08T15:21:22.480Z,2.53
2022-10-08T15:23:52.501Z,2.30
2022-10-08T15:26:22.503Z,2.10
2022-10-08T15:28:55.046Z,1.83
2022-10-08T15:31:28.107Z,2.63
2022-10-08T15:34:01.746Z,2.03
2022-10-08T15:36:36.185Z,1.87
2022-10-08T15:39:11.824Z,1.90
2022-10-08T15:41:44.859Z,2.13
2022-10-08T15:44:21.079Z,2.70
2022-10-08T15:46:59.572Z,2.27
2022-10-08T15:49:33.209Z,2.33
2022-10-08T15:52:05.038Z,2.00
2022-10-08T15:54:37.807Z,1.70
2022-10-08T15:57:08.970Z,2.23
2022-10-08T15:59:42.013Z,2.53
2022-10-08T16:02:17.662Z,2.00
2022-10-08T16:04:49.973Z,2.57
2022-10-08T16:07:20.335Z,1.57
2022-10-08T16:09:50.387Z,1.90
2022-10-08T16:12:20.359Z,2.20
2022-10-08T16:14:52.957Z,2.20
2022-10-08T16:17:22.906Z,2.90
2022-10-08T16:19:52.914Z,2.23
2022-10-08T16:22:22.926Z,3.13
2022-10-08T16:24:53.052Z,2.07
2022-10-08T16:27:23.027Z,2.20
2022-10-08T16:29:55.649Z,1.90
2022-10-08T16:32:25.651Z,1.93
2022-10-08T16:34:55.615Z,2.17
2022-10-08T16:37:25.674Z,2.30
2022-10-08T16:39:56.939Z,2.87
2022-10-08T16:42:26.956Z,3.80
2022-10-08T16:44:59.494Z,5.53
2022-10-08T16:47:29.889Z,5.53
2022-10-08T16:49:59.996Z,7.33
2022-10-08T16:52:30.141Z,4.47
2022-10-08T16:55:00.089Z,5.70
2022-10-08T16:57:32.293Z,2.80
2022-10-08T17:00:04.906Z,3.60
2022-10-08T17:02:35.118Z,3.07
2022-10-08T17:05:05.139Z,3.37
2022-10-08T17:07:35.193Z,4.20
2022-10-08T17:10:05.216Z,2.27
2022-10-08T17:12:35.160Z,2.20
2022-10-08T17:15:08.629Z,3.30
2022-10-08T17:17:38.768Z,2.63
2022-10-08T17:20:11.258Z,3.03
2022-10-08T17:22:41.211Z,2.77
2022-10-08T17:25:12.465Z,2.20
2022-10-08T17:27:43.094Z,5.37
2022-10-08T17:30:16.836Z,3.70
2022-10-08T17:32:47.040Z,2.57
2022-10-08T17:35:17.585Z,17.83
2022-10-08T17:37:47.637Z,7.90
2022-10-08T17:40:17.786Z,4.07
2022-10-08T17:42:48.181Z,2.67
2022-10-08T17:45:22.303Z,3.37
2022-10-08T17:47:52.352Z,6.00
2022-10-08T17:50:22.365Z,3.47
2022-10-08T17:52:52.569Z,3.53
2022-10-08T17:55:22.622Z,4.07
2022-10-08T17:57:52.779Z,2.73
2022-10-08T18:00:25.958Z,3.10
2022-10-08T18:02:56.197Z,3.30
2022-10-08T18:05:26.623Z,2.80
2022-10-08T18:07:56.659Z,3.23
2022-10-08T18:10:26.749Z,3.43
2022-10-08T18:12:56.787Z,3.67
2022-10-08T18:15:29.412Z,3.83
2022-10-08T18:17:59.406Z,3.80
2022-10-08T18:20:29.650Z,3.03
2022-10-08T18:22:59.654Z,3.20
2022-10-08T18:25:29.687Z,3.50
2022-10-08T18:28:00.028Z,3.30
2022-10-08T18:30:32.884Z,4.27
2022-10-08T18:33:02.941Z,3.80
2022-10-08T18:35:32.951Z,3.97
2022-10-08T18:38:02.960Z,3.80
2022-10-08T18:40:33.730Z,4.93
2022-10-08T18:43:03.718Z,3.90
2022-10-08T18:45:39.201Z,3.93
2022-10-08T18:48:09.440Z,4.80
2022-10-08T18:50:39.421Z,4.50
2022-10-08T18:53:09.395Z,4.73
2022-10-08T18:55:39.394Z,4.63
2022-10-08T18:58:09.398Z,3.90
2022-10-08T19:00:45.001Z,6.80
2022-10-08T19:03:14.984Z,3.93
2022-10-08T19:05:44.990Z,4.33
2022-10-08T19:08:15.338Z,4.37
2022-10-08T19:10:45.414Z,4.53
2022-10-08T19:13:16.046Z,5.40
2022-10-08T19:15:48.698Z,6.70
2022-10-08T19:18:18.741Z,5.40
2022-10-08T19:20:49.689Z,5.87
2022-10-08T19:23:19.865Z,5.57
2022-10-08T19:25:49.924Z,4.93
2022-10-08T19:28:19.933Z,7.57
2022-10-08T19:30:52.708Z,5.30
2022-10-08T19:33:22.913Z,5.30
2022-10-08T19:35:52.890Z,4.93
2022-10-08T19:38:23.002Z,5.73
2022-10-08T19:40:52.945Z,4.90
2022-10-08T19:43:22.914Z,6.73
2022-10-08T19:45:55.659Z,7.90
2022-10-08T19:48:25.628Z,7.77
2022-10-08T19:50:55.986Z,7.50
2022-10-08T19:53:26.283Z,6.80
2022-10-08T19:55:56.241Z,10.43
2022-10-08T19:58:26.230Z,9.10
2022-10-08T20:01:06.182Z,8.77
2022-10-08T20:03:37.119Z,8.80
2022-10-08T20:06:10.086Z,10.03
2022-10-08T20:08:40.883Z,10.73
2022-10-08T20:11:13.618Z,10.77
2022-10-08T20:13:45.799Z,10.63
2022-10-08T20:16:23.004Z,9.80
2022-10-08T20:18:55.149Z,10.60
2022-10-08T20:21:26.206Z,8.10
2022-10-08T20:23:57.019Z,8.50
2022-10-08T20:26:30.720Z,7.73
2022-10-08T20:29:03.707Z,9.10
2022-10-08T20:31:39.707Z,9.57
2022-10-08T20:34:14.330Z,9.13
2022-10-08T20:36:44.471Z,10.23
2022-10-08T20:39:15.271Z,10.00
2022-10-08T20:41:45.425Z,8.57
2022-10-08T20:44:15.840Z,7.40
2022-10-08T20:46:49.049Z,9.90
2022-10-08T20:49:19.164Z,8.30
2022-10-08T20:51:49.474Z,10.03
2022-10-08T20:54:20.729Z,9.73
2022-10-08T20:56:50.714Z,9.50
2022-10-08T20:59:22.818Z,9.60
2022-10-08T21:01:55.737Z,9.20
2022-10-08T21:04:25.859Z,10.37
2022-10-08T21:06:56.143Z,9.83
2022-10-08T21:09:26.273Z,8.70
2022-10-08T21:11:56.281Z,7.90
2022-10-08T21:14:26.479Z,9.50
2022-10-08T21:16:59.053Z,9.20
2022-10-08T21:19:29.084Z,9.73
2022-10-08T21:21:59.041Z,9.87
2022-10-08T21:24:29.211Z,10.70
2022-10-08T21:26:59.224Z,8.93
2022-10-08T21:29:29.357Z,9.90
2022-10-08T21:32:02.976Z,10.43
2022-10-08T21:34:33.033Z,10.77
2022-10-08T21:37:03.175Z,11.20
2022-10-08T21:39:33.409Z,12.00
2022-10-08T21:42:03.425Z,10.50
2022-10-08T21:44:33.416Z,11.70
2022-10-08T21:47:06.003Z,12.40
2022-10-08T21:49:36.031Z,10.73
2022-10-08T21:52:06.062Z,11.00
2022-10-08T21:54:36.116Z,10.00
2022-10-08T21:57:06.229Z,11.93
2022-10-08T21:59:36.369Z,10.60
2022-10-08T22:02:08.987Z,11.07
2022-10-08T22:04:39.103Z,10.13
2022-10-08T22:07:09.081Z,12.33
2022-10-08T22:09:39.441Z,12.50
2022-10-08T22:12:09.527Z,12.03
2022-10-08T22:14:39.802Z,10.50
2022-10-08T22:17:12.403Z,11.80
2022-10-08T22:19:42.390Z,10.70
2022-10-08T22:22:12.382Z,10.30
2022-10-08T22:24:42.659Z,11.90
2022-10-08T22:27:12.738Z,12.10
2022-10-08T22:29:42.709Z,10.93
2022-10-08T22:32:15.330Z,11.90
2022-10-08T22:34:45.297Z,12.47
2022-10-08T22:37:15.355Z,9.90
2022-10-08T22:39:45.417Z,12.40
2022-10-08T22:42:15.506Z,12.47
2022-10-08T22:44:45.542Z,13.10
2022-10-08T22:47:18.164Z,13.23
2022-10-08T22:49:48.173Z,12.23
2022-10-08T22:52:18.670Z,12.10
2022-10-08T22:54:48.643Z,10.80
2022-10-08T22:57:18.606Z,9.97
2022-10-08T22:59:48.537Z,13.57
2022-10-08T23:02:21.456Z,10.73
2022-10-08T23:04:51.903Z,11.23
2022-10-08T23:07:21.912Z,9.73
2022-10-08T23:09:52.095Z,10.47
2022-10-08T23:12:22.213Z,11.40
2022-10-08T23:14:52.274Z,11.80
2022-10-08T23:17:24.789Z,11.97
2022-10-08T23:19:54.749Z,11.60
2022-10-08T23:22:25.160Z,12.60
2022-10-08T23:24:55.092Z,11.07
2022-10-08T23:27:25.069Z,12.03
2022-10-08T23:29:56.191Z,12.43
2022-10-08T23:32:28.851Z,11.53
2022-10-08T23:34:58.846Z,10.93
2022-10-08T23:37:28.966Z,11.90
2022-10-08T23:39:59.004Z,9.70
2022-10-08T23:42:29.040Z,9.87
2022-10-08T23:44:59.120Z,10.50
2022-10-08T23:47:31.690Z,10.43
2022-10-08T23:50:01.783Z,11.37
2022-10-08T23:52:31.797Z,9.57
2022-10-08T23:55:01.765Z,10.20
2022-10-08T23:57:31.784Z,10.30
